createdAt,value
2018-09-21T00:01:05.467Z,99.90
2018-09-21T00:03:34.158Z,99.90
2018-09-21T00:06:02.457Z,99.90
2018-09-21T00:08:30.758Z,99.90
2018-09-21T00:10:59.728Z,99.90
2018-09-21T00:13:28.022Z,99.90
2018-09-21T00:15:57.000Z,99.90
2018-09-21T00:18:25.635Z,99.90
2018-09-21T00:23:28.162Z,99.90
2018-09-21T00:25:56.834Z,99.90
2018-09-21T00:28:25.162Z,99.90
2018-09-21T00:30:53.857Z,99.90
2018-09-21T00:33:22.684Z,99.90
2018-09-21T00:35:51.191Z,99.90
2018-09-21T00:38:19.498Z,99.90
2018-09-21T00:40:48.482Z,99.90
2018-09-21T00:43:17.639Z,99.90
2018-09-21T00:45:45.958Z,99.90
2018-09-21T00:48:14.598Z,99.90
2018-09-21T00:50:42.869Z,99.90
2018-09-21T00:53:11.149Z,99.90
2018-09-21T00:55:39.446Z,99.90
2018-09-21T00:58:07.742Z,99.90
2018-09-21T01:00:36.453Z,99.90
2018-09-21T01:03:05.502Z,99.90
2018-09-21T01:05:33.984Z,99.90
2018-09-21T01:08:02.259Z,99.90
2018-09-21T01:10:30.560Z,99.90
2018-09-21T01:12:58.903Z,99.90
2018-09-21T01:15:27.691Z,99.90
2018-09-21T01:17:55.949Z,99.90
2018-09-21T01:20:24.480Z,99.90
2018-09-21T01:22:52.772Z,99.90
2018-09-21T01:25:21.059Z,99.90
2018-09-21T01:27:49.348Z,99.90
2018-09-21T01:30:17.654Z,99.90
2018-09-21T01:32:46.205Z,99.90
2018-09-21T01:35:15.209Z,99.90
2018-09-21T01:37:43.513Z,99.90
2018-09-21T01:40:11.795Z,99.90
2018-09-21T01:42:40.749Z,99.90
2018-09-21T01:45:09.043Z,99.90
2018-09-21T01:47:37.326Z,99.90
2018-09-21T01:50:05.641Z,99.90
2018-09-21T01:52:33.907Z,99.90
2018-09-21T01:55:02.263Z,99.90
2018-09-21T01:57:34.211Z,99.90
2018-09-21T02:00:03.318Z,99.90
2018-09-21T02:02:31.894Z,99.90
2018-09-21T02:05:00.208Z,99.90
2018-09-21T02:07:28.495Z,99.90
2018-09-21T02:09:57.162Z,99.90
2018-09-21T02:12:25.443Z,99.90
2018-09-21T02:14:53.717Z,99.90
2018-09-21T02:17:22.164Z,99.90
2018-09-21T02:19:50.446Z,99.90
2018-09-21T02:22:19.129Z,99.90
2018-09-21T02:24:47.409Z,99.90
2018-09-21T02:27:15.942Z,99.90
2018-09-21T02:29:44.205Z,99.90
2018-09-21T02:32:13.131Z,99.90
2018-09-21T02:34:41.413Z,99.90
2018-09-21T02:37:09.691Z,99.90
2018-09-21T02:39:38.166Z,99.90
2018-09-21T02:42:07.035Z,99.90
2018-09-21T02:44:36.138Z,99.90
2018-09-21T02:47:04.394Z,99.90
2018-09-21T02:49:32.717Z,99.90
2018-09-21T02:52:01.073Z,99.90
2018-09-21T02:54:29.342Z,99.90
2018-09-21T02:56:57.736Z,99.90
2018-09-21T02:59:26.014Z,99.90
2018-09-21T03:04:29.079Z,99.90
2018-09-21T03:06:57.377Z,99.90
2018-09-21T03:09:25.680Z,99.90
2018-09-21T03:11:54.554Z,99.90
2018-09-21T03:14:22.863Z,99.90
2018-09-21T03:16:51.139Z,99.90
2018-09-21T03:19:19.554Z,99.90
2018-09-21T03:21:48.249Z,99.90
2018-09-21T03:24:16.526Z,99.90
2018-09-21T03:26:44.882Z,99.90
2018-09-21T03:29:13.848Z,99.90
2018-09-21T03:31:42.584Z,99.90
2018-09-21T03:34:11.103Z,99.90
2018-09-21T03:36:39.379Z,99.90
2018-09-21T03:39:08.371Z,99.90
2018-09-21T03:41:37.687Z,99.90
2018-09-21T03:44:05.970Z,99.90
2018-09-21T03:46:34.262Z,99.90
2018-09-21T03:49:02.597Z,99.90
2018-09-21T03:51:30.859Z,99.90
2018-09-21T03:53:59.391Z,99.90
2018-09-21T03:56:27.661Z,99.90
2018-09-21T03:58:55.944Z,99.90
2018-09-21T04:01:27.418Z,99.90
2018-09-21T04:03:56.414Z,99.90
2018-09-21T04:06:24.671Z,99.90
2018-09-21T04:08:52.958Z,99.90
2018-09-21T04:11:21.263Z,99.90
2018-09-21T04:13:49.531Z,99.90
2018-09-21T04:16:17.943Z,99.90
2018-09-21T04:18:46.414Z,99.90
2018-09-21T04:21:15.558Z,99.90
2018-09-21T04:23:43.830Z,99.90
2018-09-21T04:26:12.094Z,99.90
2018-09-21T04:28:40.866Z,99.90
2018-09-21T04:31:09.730Z,99.90
2018-09-21T04:33:38.014Z,99.90
2018-09-21T04:36:06.400Z,99.90
2018-09-21T04:38:34.651Z,99.90
2018-09-21T04:41:02.934Z,99.90
2018-09-21T04:43:31.752Z,99.90
2018-09-21T04:45:59.952Z,99.90
2018-09-21T04:48:28.307Z,99.90
2018-09-21T04:50:56.840Z,99.90
2018-09-21T04:53:25.085Z,99.90
2018-09-21T04:55:53.655Z,99.90
2018-09-21T04:58:21.985Z,99.90
2018-09-21T05:00:51.138Z,99.90
2018-09-21T05:03:20.011Z,99.90
2018-09-21T05:05:48.323Z,99.90
2018-09-21T05:08:16.578Z,99.90
2018-09-21T05:10:44.936Z,99.90
2018-09-21T05:13:13.240Z,99.90
2018-09-21T05:15:41.581Z,99.90
2018-09-21T05:18:10.082Z,99.90
2018-09-21T05:20:39.263Z,99.90
2018-09-21T05:23:07.526Z,99.90
2018-09-21T05:25:35.786Z,99.90
2018-09-21T05:28:04.400Z,99.90
2018-09-21T05:30:36.427Z,99.90
2018-09-21T05:33:04.698Z,99.90
2018-09-21T05:35:33.006Z,99.90
2018-09-21T05:38:01.313Z,99.90
2018-09-21T05:40:30.046Z,99.90
2018-09-21T05:42:58.784Z,99.90
2018-09-21T05:45:27.440Z,99.90
2018-09-21T05:47:55.743Z,99.90
2018-09-21T05:50:24.026Z,99.90
2018-09-21T05:52:52.346Z,99.90
2018-09-21T05:55:21.190Z,99.90
2018-09-21T05:57:49.466Z,99.90
2018-09-21T06:00:18.738Z,99.90
2018-09-21T06:02:47.565Z,99.90
2018-09-21T06:05:15.847Z,99.90
2018-09-21T06:07:44.142Z,99.90
2018-09-21T06:10:12.421Z,99.90
2018-09-21T06:12:40.681Z,99.90
2018-09-21T06:15:09.846Z,99.90
2018-09-21T06:17:38.143Z,99.90
2018-09-21T06:20:12.435Z,99.90
2018-09-21T06:22:44.850Z,99.90
2018-09-21T06:25:04.840Z,99.90
2018-09-21T06:27:33.259Z,99.90
2018-09-21T06:30:01.559Z,99.90
2018-09-21T06:32:30.188Z,99.90
2018-09-21T06:34:58.967Z,99.90
2018-09-21T06:37:27.270Z,99.90
2018-09-21T06:39:55.640Z,99.90
2018-09-21T06:42:24.665Z,99.90
2018-09-21T06:45:03.511Z,99.90
2018-09-21T06:47:32.146Z,99.90
2018-09-21T06:50:00.559Z,99.90
2018-09-21T06:52:29.413Z,99.90
2018-09-21T06:54:57.835Z,99.90
2018-09-21T06:57:26.419Z,99.90
2018-09-21T07:00:00.399Z,99.90
2018-09-21T07:02:29.287Z,99.90
2018-09-21T07:05:03.677Z,99.90
2018-09-21T07:07:33.078Z,99.90
2018-09-21T07:10:03.441Z,99.90
2018-09-21T07:12:31.682Z,99.90
2018-09-21T07:14:59.983Z,99.90
2018-09-21T07:17:28.281Z,99.90
2018-09-21T07:20:03.678Z,99.90
2018-09-21T07:22:32.001Z,99.90
2018-09-21T07:25:00.261Z,99.90
2018-09-21T07:27:28.867Z,99.90
2018-09-21T07:29:57.168Z,99.90
2018-09-21T07:32:25.702Z,99.90
2018-09-21T07:34:54.487Z,99.90
2018-09-21T07:37:22.823Z,99.90
2018-09-21T07:39:51.082Z,99.90
2018-09-21T07:42:19.927Z,99.90
2018-09-21T07:44:48.226Z,99.90
2018-09-21T07:47:17.037Z,99.90
2018-09-21T07:49:45.304Z,99.90
2018-09-21T07:52:13.575Z,99.90
2018-09-21T07:54:41.867Z,99.90
2018-09-21T07:57:10.126Z,99.90
2018-09-21T07:59:38.463Z,99.90
2018-09-21T08:02:13.173Z,99.90
2018-09-21T08:04:41.921Z,99.90
2018-09-21T08:07:10.315Z,99.90
2018-09-21T08:09:39.198Z,99.90
2018-09-21T08:12:07.463Z,99.90
2018-09-21T08:14:35.745Z,99.90
2018-09-21T08:17:04.018Z,99.90
2018-09-21T08:19:32.359Z,99.90
2018-09-21T08:22:01.081Z,99.90
2018-09-21T08:24:29.356Z,99.90
2018-09-21T08:27:04.972Z,99.90
2018-09-21T08:29:33.276Z,99.90
2018-09-21T08:32:02.246Z,99.90
2018-09-21T08:34:30.518Z,99.90
2018-09-21T08:36:58.859Z,99.90
2018-09-21T08:39:27.654Z,99.90
2018-09-21T08:41:55.951Z,99.90
2018-09-21T08:44:27.717Z,99.90
2018-09-21T08:46:56.450Z,99.90
2018-09-21T08:49:25.043Z,99.90
2018-09-21T08:51:53.313Z,99.90
2018-09-21T08:54:21.640Z,99.90
2018-09-21T08:56:50.144Z,98.10
2018-09-21T08:59:18.429Z,97.00
2018-09-21T09:01:47.178Z,96.80
2018-09-21T09:04:15.942Z,95.00
2018-09-21T09:06:44.307Z,94.30
2018-09-21T09:09:12.650Z,93.10
2018-09-21T09:11:41.082Z,95.50
2018-09-21T09:14:09.416Z,93.80
2018-09-21T09:16:37.805Z,93.90
2018-09-21T09:19:06.586Z,93.10
2018-09-21T09:21:36.398Z,92.00
2018-09-21T09:24:05.059Z,92.50
2018-09-21T09:26:33.373Z,92.90
2018-09-21T09:29:01.730Z,91.70
2018-09-21T09:31:30.310Z,92.20
2018-09-21T09:33:59.074Z,92.10
2018-09-21T09:36:27.435Z,91.50
2018-09-21T09:38:55.722Z,89.20
2018-09-21T09:41:24.030Z,86.90
2018-09-21T09:43:52.631Z,88.40
2018-09-21T09:46:21.445Z,82.40
2018-09-21T09:48:49.766Z,80.70
2018-09-21T09:51:18.045Z,79.20
2018-09-21T09:53:46.336Z,80.10
2018-09-21T09:56:14.661Z,81.20
2018-09-21T09:58:43.090Z,83.00
2018-09-21T10:03:51.584Z,73.30
2018-09-21T10:06:19.891Z,68.10
2018-09-21T10:08:48.266Z,68.40
2018-09-21T10:11:16.586Z,68.30
2018-09-21T10:13:44.843Z,66.40
2018-09-21T10:16:13.441Z,62.70
2018-09-21T10:18:41.715Z,63.50
2018-09-21T10:21:10.625Z,66.60
2018-09-21T10:23:38.911Z,60.40
2018-09-21T10:26:07.575Z,63.60
2018-09-21T10:28:36.092Z,61.20
2018-09-21T10:31:04.715Z,57.60
2018-09-21T10:33:33.074Z,56.60
2018-09-21T10:36:01.495Z,59.90
2018-09-21T10:38:29.859Z,56.60
2018-09-21T10:40:58.188Z,55.90
2018-09-21T10:46:03.296Z,55.20
2018-09-21T10:48:31.635Z,57.60
2018-09-21T10:51:00.471Z,60.40
2018-09-21T10:53:28.286Z,61.40
2018-09-21T10:55:56.566Z,61.40
2018-09-21T10:58:24.941Z,65.10
2018-09-21T11:00:53.538Z,65.20
2018-09-21T11:03:22.258Z,64.70
2018-09-21T11:05:52.026Z,66.90
2018-09-21T11:08:20.298Z,66.70
2018-09-21T11:10:48.597Z,71.70
2018-09-21T11:13:16.880Z,74.00
2018-09-21T11:15:45.166Z,75.50
2018-09-21T11:18:13.533Z,75.20
2018-09-21T11:20:42.395Z,75.40
2018-09-21T11:23:10.873Z,76.40
2018-09-21T11:25:39.194Z,78.80
2018-09-21T11:28:07.491Z,75.80
2018-09-21T11:30:36.324Z,75.10
2018-09-21T11:33:04.640Z,73.10
2018-09-21T11:35:32.939Z,75.00
2018-09-21T11:38:01.255Z,72.10
2018-09-21T11:40:29.565Z,75.20
2018-09-21T11:42:57.912Z,75.50
2018-09-21T11:45:26.434Z,71.00
2018-09-21T11:47:54.737Z,67.60
2018-09-21T11:50:23.042Z,67.60
2018-09-21T11:52:51.614Z,69.40
2018-09-21T11:55:19.946Z,68.60
2018-09-21T11:57:48.382Z,71.30
2018-09-21T12:00:17.410Z,72.70
2018-09-21T12:02:46.149Z,67.30
2018-09-21T12:05:14.435Z,64.00
2018-09-21T12:07:42.801Z,63.30
2018-09-21T12:10:11.130Z,67.80
2018-09-21T12:12:39.484Z,67.40
2018-09-21T12:15:07.846Z,66.80
2018-09-21T12:17:39.341Z,66.30
2018-09-21T12:20:08.130Z,69.60
2018-09-21T12:22:36.664Z,67.10
2018-09-21T12:25:04.980Z,62.80
2018-09-21T12:27:33.288Z,65.20
2018-09-21T12:30:01.758Z,65.20
2018-09-21T12:32:30.567Z,63.70
2018-09-21T12:34:58.854Z,66.40
2018-09-21T12:37:27.454Z,68.50
2018-09-21T12:39:55.747Z,67.70
2018-09-21T12:42:24.077Z,61.30
2018-09-21T12:44:52.837Z,62.00
2018-09-21T12:47:22.147Z,60.40
2018-09-21T12:49:50.958Z,60.50
2018-09-21T12:52:20.372Z,64.90
2018-09-21T12:54:48.668Z,64.30
2018-09-21T12:57:17.047Z,64.00
2018-09-21T12:59:45.323Z,60.00
2018-09-21T13:02:15.756Z,58.80
2018-09-21T13:04:44.086Z,56.00
2018-09-21T13:07:12.464Z,53.60
2018-09-21T13:09:41.150Z,52.60
2018-09-21T13:12:09.966Z,49.30
2018-09-21T13:14:38.257Z,48.50
2018-09-21T13:17:06.584Z,46.50
2018-09-21T13:19:35.098Z,43.00
2018-09-21T13:22:04.062Z,44.60
2018-09-21T13:24:32.362Z,40.60
2018-09-21T13:29:37.131Z,43.90
2018-09-21T13:32:05.521Z,47.20
2018-09-21T13:34:33.782Z,49.40
2018-09-21T13:37:02.580Z,48.40
2018-09-21T13:39:30.862Z,45.40
2018-09-21T13:41:59.171Z,44.20
2018-09-21T13:44:28.117Z,42.10
2018-09-21T13:46:56.548Z,41.10
2018-09-21T13:49:24.852Z,43.00
2018-09-21T13:51:53.182Z,45.00
2018-09-21T13:54:21.482Z,46.80
2018-09-21T13:56:49.840Z,48.20
2018-09-21T13:59:18.134Z,47.80
2018-09-21T14:01:47.051Z,48.80
2018-09-21T14:04:15.938Z,49.10
2018-09-21T14:06:44.242Z,48.70
2018-09-21T14:09:12.553Z,49.80
2018-09-21T14:11:40.934Z,52.00
2018-09-21T14:14:09.253Z,52.40
2018-09-21T14:16:38.143Z,52.40
2018-09-21T14:19:06.895Z,53.60
2018-09-21T14:21:35.571Z,53.50
2018-09-21T14:24:04.486Z,55.60
2018-09-21T14:26:32.770Z,54.90
2018-09-21T14:29:01.458Z,54.20
2018-09-21T14:31:29.732Z,54.90
2018-09-21T14:33:57.994Z,54.40
2018-09-21T14:39:00.883Z,55.90
2018-09-21T14:41:29.154Z,56.20
2018-09-21T14:43:57.476Z,55.00
2018-09-21T14:46:25.782Z,55.00
2018-09-21T14:48:54.062Z,55.30
2018-09-21T14:51:22.470Z,55.30
2018-09-21T14:53:51.458Z,54.80
2018-09-21T14:56:19.762Z,54.40
2018-09-21T14:58:48.038Z,55.00
2018-09-21T15:01:27.147Z,55.00
2018-09-21T15:03:56.017Z,53.90
2018-09-21T15:06:24.313Z,54.00
2018-09-21T15:08:53.040Z,54.30
2018-09-21T15:11:21.372Z,53.60
2018-09-21T15:13:49.676Z,53.90
2018-09-21T15:16:18.157Z,54.90
2018-09-21T15:18:46.917Z,55.60
2018-09-21T15:21:16.094Z,55.10
2018-09-21T15:23:44.806Z,55.20
2018-09-21T15:26:13.462Z,56.30
2018-09-21T15:28:42.048Z,55.40
2018-09-21T15:31:10.343Z,55.70
2018-09-21T15:33:38.673Z,56.80
2018-09-21T15:36:07.747Z,55.70
2018-09-21T15:38:36.022Z,56.70
2018-09-21T15:41:04.341Z,57.30
2018-09-21T15:43:32.756Z,57.80
2018-09-21T15:46:00.950Z,57.80
2018-09-21T15:48:29.692Z,57.30
2018-09-21T15:50:57.974Z,57.90
2018-09-21T15:53:26.286Z,58.80
2018-09-21T15:55:54.630Z,59.40
2018-09-21T15:58:23.022Z,61.30
2018-09-21T16:00:51.534Z,64.90
2018-09-21T16:03:20.386Z,69.60
2018-09-21T16:05:49.058Z,72.90
2018-09-21T16:08:17.646Z,75.40
2018-09-21T16:10:46.006Z,77.30
2018-09-21T16:13:14.337Z,79.90
2018-09-21T16:15:43.222Z,82.60
2018-09-21T16:18:11.544Z,83.30
2018-09-21T16:20:40.050Z,83.90
2018-09-21T16:23:09.285Z,85.60
2018-09-21T16:25:38.487Z,87.00
2018-09-21T16:28:07.515Z,89.00
2018-09-21T16:30:35.882Z,90.70
2018-09-21T16:33:04.255Z,91.90
2018-09-21T16:35:32.653Z,92.70
2018-09-21T16:38:00.965Z,93.80
2018-09-21T16:40:30.262Z,95.50
2018-09-21T16:42:58.562Z,95.60
2018-09-21T16:45:26.956Z,96.20
2018-09-21T16:47:55.300Z,97.60
2018-09-21T16:50:23.590Z,97.20
2018-09-21T16:52:51.986Z,97.30
2018-09-21T16:55:20.862Z,97.20
2018-09-21T16:57:49.150Z,96.90
2018-09-21T17:00:17.426Z,97.00
2018-09-21T17:02:46.562Z,96.90
2018-09-21T17:05:14.848Z,96.60
2018-09-21T17:07:43.152Z,95.90
2018-09-21T17:10:17.899Z,95.50
2018-09-21T17:12:46.279Z,95.40
2018-09-21T17:15:15.263Z,95.30
2018-09-21T17:17:43.635Z,95.30
2018-09-21T17:20:11.992Z,94.90
2018-09-21T17:22:40.302Z,94.70
2018-09-21T17:25:09.697Z,94.30
2018-09-21T17:27:38.178Z,94.20
2018-09-21T17:30:07.024Z,94.40
2018-09-21T17:32:35.537Z,95.50
2018-09-21T17:35:04.338Z,96.00
2018-09-21T17:37:32.716Z,96.80
2018-09-21T17:40:01.002Z,95.80
2018-09-21T17:42:29.486Z,96.50
2018-09-21T17:44:57.775Z,96.00
2018-09-21T17:47:26.134Z,96.40
2018-09-21T17:49:55.126Z,96.60
2018-09-21T17:52:23.462Z,96.30
2018-09-21T17:54:51.729Z,96.90
2018-09-21T17:57:20.110Z,96.80
2018-09-21T17:59:49.167Z,97.30
2018-09-21T18:02:23.061Z,97.50
2018-09-21T18:04:51.374Z,98.70
2018-09-21T18:07:20.968Z,99.70
2018-09-21T18:09:51.000Z,99.90
2018-09-21T18:12:19.349Z,99.90
2018-09-21T18:14:48.371Z,99.90
2018-09-21T18:17:16.671Z,99.90
2018-09-21T18:19:44.987Z,99.90
2018-09-21T18:22:13.990Z,99.90
2018-09-21T18:24:43.466Z,99.90
2018-09-21T18:27:11.855Z,99.90
2018-09-21T18:29:40.602Z,99.90
2018-09-21T18:32:08.937Z,99.90
2018-09-21T18:34:37.201Z,99.90
2018-09-21T18:37:05.536Z,99.90
2018-09-21T18:39:33.861Z,99.90
2018-09-21T18:42:02.194Z,99.90
2018-09-21T18:44:30.930Z,99.90
2018-09-21T18:46:59.218Z,99.90
2018-09-21T18:49:28.008Z,99.90
2018-09-21T18:51:56.258Z,99.90
2018-09-21T18:54:24.534Z,99.90
2018-09-21T18:56:52.861Z,99.90
2018-09-21T18:59:21.174Z,99.90
2018-09-21T19:01:50.498Z,99.90
2018-09-21T19:06:46.738Z,99.90
2018-09-21T19:09:15.031Z,99.90
2018-09-21T19:11:43.329Z,99.90
2018-09-21T20:45:53.565Z,99.90
2018-09-21T20:48:22.577Z,99.90
2018-09-21T20:50:51.289Z,99.90
2018-09-21T20:53:19.925Z,99.90
2018-09-21T20:55:48.547Z,99.90
2018-09-21T20:58:16.838Z,99.90
2018-09-21T21:00:45.100Z,99.90
2018-09-21T21:03:13.949Z,99.90
2018-09-21T21:05:42.599Z,99.90
2018-09-21T21:08:10.915Z,99.90
2018-09-21T21:10:39.214Z,99.90
2018-09-21T21:13:08.301Z,99.90
2018-09-21T21:15:37.518Z,99.90
2018-09-21T21:18:13.514Z,99.90
2018-09-21T21:20:41.818Z,99.90
2018-09-21T21:23:10.117Z,99.90
2018-09-21T21:25:38.926Z,99.90
2018-09-21T21:28:07.219Z,99.90
2018-09-21T21:30:35.609Z,99.90
2018-09-21T21:33:05.526Z,99.90
2018-09-21T21:35:34.198Z,99.90
2018-09-21T21:38:02.909Z,99.90
2018-09-21T21:40:31.213Z,99.90
2018-09-21T21:42:59.494Z,99.90
2018-09-21T21:45:27.794Z,99.90
2018-09-21T21:47:56.126Z,99.90
2018-09-21T21:50:24.542Z,99.90
2018-09-21T21:52:52.846Z,99.90
2018-09-21T21:55:21.139Z,99.90
2018-09-21T21:57:49.454Z,99.90
2018-09-21T22:00:17.793Z,99.90
2018-09-21T22:02:46.556Z,99.90
2018-09-21T22:05:20.873Z,99.90
2018-09-21T22:07:49.155Z,99.90
2018-09-21T22:10:17.431Z,99.90
2018-09-21T22:12:51.174Z,99.90
2018-09-21T22:15:20.374Z,99.90
2018-09-21T22:17:49.638Z,99.90
2018-09-21T22:20:18.159Z,99.90
2018-09-21T22:22:46.832Z,99.90
2018-09-21T22:25:15.649Z,99.90
2018-09-21T22:27:43.957Z,99.90
2018-09-21T22:30:12.261Z,99.90
2018-09-21T22:32:40.893Z,99.90
2018-09-21T22:35:09.210Z,99.90
2018-09-21T22:37:37.597Z,99.90
2018-09-21T22:40:06.175Z,99.90
2018-09-21T22:42:34.511Z,99.90
2018-09-21T22:45:02.847Z,99.90
2018-09-21T22:47:31.361Z,99.90
2018-09-21T22:50:00.301Z,99.90
2018-09-21T22:52:28.581Z,99.90
2018-09-21T22:54:57.116Z,99.90
2018-09-21T22:57:25.498Z,99.90
2018-09-21T22:59:54.482Z,99.90
2018-09-21T23:02:23.079Z,99.90
2018-09-21T23:04:51.376Z,99.90
2018-09-21T23:07:20.222Z,99.90
2018-09-21T23:09:48.498Z,99.90
2018-09-21T23:12:16.820Z,99.90
2018-09-21T23:14:45.625Z,99.90
2018-09-21T23:17:13.885Z,99.90
2018-09-21T23:19:42.214Z,99.90
2018-09-21T23:22:10.489Z,99.90
2018-09-21T23:24:39.185Z,99.90
2018-09-21T23:27:07.554Z,99.90
2018-09-21T23:29:35.877Z,99.90
2018-09-21T23:32:04.136Z,99.90
2018-09-21T23:34:32.412Z,99.90
2018-09-21T23:37:00.818Z,99.90
2018-09-21T23:39:29.141Z,99.90
2018-09-21T23:42:01.821Z,99.90
2018-09-21T23:44:30.553Z,99.90
2018-09-21T23:46:58.839Z,99.90
2018-09-21T23:49:27.111Z,99.90
2018-09-21T23:51:56.054Z,99.90
2018-09-21T23:54:24.398Z,99.90
2018-09-21T23:56:52.664Z,99.90
2018-09-21T23:59:20.980Z,99.90
